• Join FlightAware (Why Join?)
  • Login
  • US Flag 
09:31AM EDT


 

Airport Tracker/Info


-or-


 

Live Flight TrackerFlight Track Log ✈ FDX1570 ✈ 26-Jun-2013 ✈ KMEM - KALB

Flight Track Log - Related Links

Times and Time Zones

All times are in EDT time to prevent confusion due to time zone crossing. See the FDX1570 flight status page for this flight to view local times or setup timezone preferences in your user account.

Time Position Orientation Groundspeed Altitude Reporting Facility
EDT Latitude Longitude Course Direction KTS MPH feet Rate Location/Type
04:38AM 35.0333 -89.9667 180° South 176 203 1,200  Level KMEM
04:39AM 35.0000 -89.9667 180° South 174 200 2,500 1,980 Climbing KMEM
04:40AM 34.9333 -89.9333 158° South 272 313 4,600 2,460 Climbing KMEM
04:41AM 34.9333 -89.8333 90° East 315 362 7,800 2,820 Climbing KMEM
04:42AM 34.9581 -89.7769 62° Northeast 310 357 9,500 2,100 Climbing Memphis Center
04:43AM 34.9992 -89.6853 61° Northeast 345 397 11,200 1,680 Climbing Memphis Center
04:45AM 35.0939 -89.4714 62° Northeast 382 440 14,700 1,920 Climbing Memphis Center
04:46AM 35.1472 -89.3489 62° Northeast 387 445 17,000 2,040 Climbing Memphis Center
04:47AM 35.2025 -89.2236 62° Northeast 411 473 18,800 2,040 Climbing Memphis Center
04:48AM 35.2617 -89.0933 61° Northeast 421 484 21,100 1,980 Climbing Memphis Center
04:49AM 35.3292 -88.9700 56° Northeast 428 493 22,800 1,800 Climbing Memphis Center
04:55AM 35.7630 -88.1220 56° Northeast 474 545 34,000 1,800 Climbing FlightAware
04:56AM 35.8180 -88.0130 58° Northeast 469 540 35,400 1,620 Climbing FlightAware
04:56AM 35.8610 -87.9270 58° Northeast 466 536 36,400 1,500 Climbing FlightAware
04:57AM 35.9120 -87.8260 58° Northeast 461 531 37,500 1,500 Climbing FlightAware
04:58AM 35.9580 -87.7320 59° Northeast 452 520 38,600 1,020 Climbing FlightAware
04:58AM 36.0070 -87.6360 58° Northeast 454 522 39,000 240 Climbing FlightAware
04:59AM 36.0500 -87.5490 59° Northeast 455 524 39,000  Level FlightAware
04:59AM 36.0770 -87.4960 58° Northeast 456 525 39,000  Level FlightAware
05:00AM 36.1250 -87.3980 59° Northeast 457 526 39,000  Level FlightAware
05:01AM 36.1710 -87.3040 59° Northeast 456 525 39,000  Level FlightAware
05:02AM 36.2290 -87.1870 58° Northeast 454 522 39,000  Level FlightAware
05:02AM 36.2780 -87.0870 59° Northeast 452 520 39,000  Level FlightAware
05:03AM 36.3220 -86.9960 59° Northeast 450 518 39,000  Level FlightAware
05:04AM 36.3680 -86.9040 58° Northeast 449 517 39,000  Level FlightAware
05:05AM 36.4110 -86.8150 59° Northeast 448 516 39,000  Level FlightAware
05:05AM 36.4500 -86.7340 59° Northeast 446 513 39,000  Level FlightAware
05:06AM 36.5020 -86.6280 59° Northeast 449 517 39,000  Level FlightAware
05:07AM 36.5630 -86.5020 59° Northeast 452 520 39,000  Level FlightAware
05:07AM 36.5931 -86.4389 59° Northeast 454 522 39,000  Level FlightAware ADS-B
05:08AM 36.6260 -86.3715 59° Northeast 456 525 39,000  Level FlightAware ADS-B
05:08AM 36.6589 -86.3017 60° Northeast 456 525 39,000  Level FlightAware ADS-B
05:09AM 36.6925 -86.2317 59° Northeast 456 525 39,000  Level FlightAware ADS-B
05:09AM 36.7266 -86.1616 59° Northeast 457 526 39,000  Level FlightAware ADS-B
05:10AM 36.7604 -86.0894 60° Northeast 457 526 39,000  Level FlightAware ADS-B
05:10AM 36.7929 -86.0213 59° Northeast 456 525 39,000  Level FlightAware ADS-B
05:11AM 36.8359 -85.9310 59° Northeast 455 524 39,000  Level FlightAware ADS-B
05:12AM 36.8970 -85.7990 60° Northeast 454 522 39,000  Level FlightAware
05:13AM 36.9650 -85.6580 59° Northeast 454 522 39,000  Level FlightAware
05:14AM 37.0133 -85.5538 60° Northeast 453 521 39,000  Level FlightAware ADS-B
05:14AM 37.0450 -85.4859 60° Northeast 453 521 39,000  Level FlightAware ADS-B
05:15AM 37.0784 -85.4159 59° Northeast 453 521 39,000  Level FlightAware ADS-B
05:15AM 37.1138 -85.3389 60° Northeast 452 520 39,000  Level FlightAware ADS-B
05:16AM 37.1455 -85.2711 60° Northeast 452 520 39,000  Level FlightAware ADS-B
05:16AM 37.1775 -85.2011 60° Northeast 452 520 39,000  Level FlightAware ADS-B
05:17AM 37.2094 -85.1330 60° Northeast 452 520 39,000  Level FlightAware ADS-B
05:17AM 37.2410 -85.0650 60° Northeast 452 520 39,000  Level FlightAware ADS-B
05:18AM 37.2724 -84.9967 60° Northeast 452 520 39,000  Level FlightAware ADS-B
05:18AM 37.3043 -84.9262 60° Northeast 453 521 39,000  Level FlightAware ADS-B
05:19AM 37.3365 -84.8578 59° Northeast 454 522 39,000  Level FlightAware ADS-B
05:20AM 37.3707 -84.7823 60° Northeast 455 524 39,000  Level FlightAware ADS-B
05:20AM 37.4045 -84.7089 60° Northeast 455 524 39,000  Level FlightAware ADS-B
05:21AM 37.4474 -84.6151 60° Northeast 454 522 39,000  Level FlightAware ADS-B
05:21AM 37.4820 -84.5373 61° Northeast 452 520 39,000  Level FlightAware ADS-B
05:22AM 37.5290 -84.4367 59° Northeast 453 521 39,000  Level FlightAware ADS-B
05:23AM 37.5750 -84.3340 61° Northeast 454 522 39,000  Level FlightAware
05:23AM 37.6100 -84.2560 60° Northeast 454 522 39,000  Level FlightAware
05:24AM 37.6570 -84.1510 60° Northeast 454 522 39,000  Level FlightAware
05:25AM 37.7100 -84.0620 53° Northeast 454 522 39,000  Level FlightAware
05:26AM 37.7770 -83.9470 54° Northeast 454 522 39,000  Level FlightAware
05:27AM 37.8410 -83.8390 53° Northeast 454 522 39,000  Level FlightAware
05:27AM 37.8800 -83.7740 53° Northeast 454 522 39,000  Level FlightAware
05:28AM 37.9340 -83.6830 53° Northeast 454 522 39,000  Level FlightAware
05:29AM 37.9700 -83.6220 53° Northeast 454 522 39,000  Level FlightAware
05:29AM 38.0590 -83.4556 56° Northeast 458 527 39,000  Level FlightAware ADS-B
05:30AM 38.0741 -83.4169 64° Northeast 460 529 39,000  Level FlightAware ADS-B
05:31AM 38.1118 -83.2518 74° East 466 536 39,000  Level FlightAware ADS-B
05:32AM 38.1390 -83.1120 76° East 462 532 39,000  Level FlightAware
05:32AM 38.1620 -82.9970 76° East 459 528 39,000  Level FlightAware
05:33AM 38.1830 -82.8920 76° East 457 526 39,000  Level FlightAware
05:34AM 38.1890 -82.7760 86° East 465 535 39,000  Level FlightAware
05:34AM 38.1850 -82.6700 93° East 466 536 39,000  Level FlightAware
05:35AM 38.1810 -82.5530 92° East 459 528 39,000  Level FlightAware
05:35AM 38.1802 -82.5260 92° East 457 526 39,000  Level FlightAware ADS-B
05:36AM 38.1816 -82.4625 88° East 448 516 39,000  Level FlightAware ADS-B
05:36AM 38.2073 -82.3728 70° East 441 507 39,000  Level FlightAware ADS-B
05:37AM 38.2521 -82.2995 52° Northeast 440 506 39,000  Level FlightAware ADS-B
05:37AM 38.2563 -82.2935 48° Northeast 444 511 39,000  Level FlightAware ADS-B
05:38AM 38.2991 -82.2294 50° Northeast 446 513 39,000  Level FlightAware ADS-B
05:39AM 38.3830 -82.1000 50° Northeast 447 514 39,000  Level FlightAware
05:39AM 38.4480 -82.0030 49° Northeast 449 517 39,000  Level FlightAware
05:40AM 38.5060 -81.9150 50° Northeast 450 518 39,000  Level FlightAware
05:41AM 38.5620 -81.8270 51° Northeast 448 516 39,000  Level FlightAware
05:42AM 38.6150 -81.7460 50° Northeast 448 516 39,000  Level FlightAware
05:42AM 38.6690 -81.6640 50° Northeast 448 516 39,000  Level FlightAware
05:43AM 38.7240 -81.5780 51° Northeast 448 516 39,000  Level FlightAware
05:44AM 38.7840 -81.4860 50° Northeast 450 518 39,000  Level FlightAware
05:44AM 38.8350 -81.4050 51° Northeast 453 521 39,000  Level FlightAware
05:45AM 38.8940 -81.3140 50° Northeast 455 524 39,000  Level FlightAware
05:46AM 38.9490 -81.2280 51° Northeast 459 528 39,000  Level FlightAware
05:46AM 39.0050 -81.1410 50° Northeast 462 532 39,000  Level FlightAware
05:47AM 39.0620 -81.0520 50° Northeast 465 535 39,000  Level FlightAware
05:48AM 39.1170 -80.9660 50° Northeast 467 537 39,000  Level FlightAware
05:49AM 39.1820 -80.8620 51° Northeast 469 540 39,000  Level FlightAware
05:49AM 39.2330 -80.7820 51° Northeast 469 540 39,000  Level FlightAware
05:50AM 39.2700 -80.7230 51° Northeast 470 541 39,000  Level FlightAware
05:50AM 39.3320 -80.6250 51° Northeast 472 543 39,000  Level FlightAware
05:51AM 39.3880 -80.5370 51° Northeast 474 545 39,000  Level FlightAware
05:52AM 39.4430 -80.4460 52° Northeast 474 545 39,000  Level FlightAware
05:52AM 39.5040 -80.3490 51° Northeast 474 545 39,000  Level FlightAware
05:53AM 39.5590 -80.2610 51° Northeast 475 547 39,000  Level FlightAware
05:54AM 39.6190 -80.1630 52° Northeast 477 549 39,000  Level FlightAware
05:55AM 39.6760 -80.0710 51° Northeast 478 550 39,000  Level FlightAware
05:55AM 39.7350 -79.9770 51° Northeast 481 554 39,000  Level FlightAware
05:56AM 39.7990 -79.8730 51° Northeast 481 554 39,000  Level FlightAware
05:57AM 39.8580 -79.7750 52° Northeast 482 555 39,000  Level FlightAware
05:57AM 39.9160 -79.6820 51° Northeast 484 557 39,000  Level FlightAware
05:58AM 39.9720 -79.5880 52° Northeast 484 557 39,000  Level FlightAware
05:59AM 40.0280 -79.4960 51° Northeast 486 559 39,000  Level FlightAware
05:59AM 40.0830 -79.4060 51° Northeast 489 563 39,000  Level FlightAware
06:02AM 40.2710 -79.0920 52° Northeast 497 572 39,000  Level FlightAware
06:02AM 40.3250 -79.0020 52° Northeast 498 573 39,000  Level FlightAware
06:03AM 40.3910 -78.8920 52° Northeast 497 572 39,000  Level FlightAware
06:04AM 40.4500 -78.7930 52° Northeast 496 571 39,000  Level FlightAware
06:04AM 40.4980 -78.7090 53° Northeast 495 570 39,000  Level FlightAware
06:06AM 40.6140 -78.5120 52° Northeast 495 570 39,000  Level FlightAware
06:07AM 40.6740 -78.4120 52° Northeast 496 571 39,000  Level FlightAware
06:07AM 40.7550 -78.2720 53° Northeast 500 575 39,000  Level FlightAware
06:08AM 40.8110 -78.1750 53° Northeast 501 577 39,000  Level FlightAware
06:09AM 40.8750 -78.0660 52° Northeast 501 577 39,000 -480 Level FlightAware
06:10AM 40.9290 -77.9630 55° Northeast 502 578 38,400 -900 Descending FlightAware
06:10AM 40.9760 -77.8610 59° Northeast 501 577 37,800 -1,020 Descending FlightAware
06:11AM 41.0434 -77.7097 59° Northeast 502 578 36,900 -960 Descending FlightAware ADS-B
06:12AM 41.0820 -77.6220 60° Northeast 503 579 36,400 -1,080 Descending FlightAware
06:12AM 41.0972 -77.5873 60° Northeast 505 581 36,100 -1,380 Descending FlightAware ADS-B
06:12AM 41.1300 -77.5120 60° Northeast 509 586 35,500 -1,500 Descending FlightAware
06:13AM 41.1704 -77.4199 60° Northeast 511 588 34,600 -2,160 Descending FlightAware ADS-B
06:14AM 41.2300 -77.2840 60° Northeast 500 575 32,500 -2,340 Descending FlightAware
06:15AM 41.2920 -77.1681 55° Northeast 497 572 30,800 -2,520 Descending FlightAware ADS-B
06:15AM 41.3363 -77.1097 45° Northeast 486 559 29,500 -1,020 Descending FlightAware ADS-B
06:16AM 41.4784 -76.9433 41° Northeast 519 597 29,000 -240 Descending FlightAware ADS-B
06:17AM 41.5550 -76.8520 42° Northeast 521 600 29,000  Level FlightAware
06:18AM 41.6390 -76.7560 40° Northeast 527 606 29,000 -360 Level FlightAware
06:19AM 41.7130 -76.6680 42° Northeast 523 602 28,500 -960 Descending FlightAware
06:19AM 41.7900 -76.5780 41° Northeast 525 604 27,700 -1,140 Descending FlightAware
06:20AM 41.8680 -76.4850 42° Northeast 527 606 26,900 -1,200 Descending FlightAware
06:21AM 41.9350 -76.4040 42° Northeast 529 609 26,100 -1,200 Descending FlightAware
06:21AM 42.0070 -76.3180 42° Northeast 531 611 25,300 -960 Descending FlightAware
06:22AM 42.1080 -76.1970 42° Northeast 517 595 24,700 -900 Descending FlightAware
06:23AM 42.1650 -76.1070 49° Northeast 510 587 24,100 -540 Descending FlightAware
06:23AM 42.2160 -75.9720 63° Northeast 490 564 24,000 -120 Descending FlightAware
06:24AM 42.2540 -75.8640 65° Northeast 491 565 24,000 -300 Level FlightAware
06:25AM 42.2920 -75.7470 66° East 485 558 23,600 -1,260 Descending FlightAware
06:26AM 42.3260 -75.6210 70° East 492 566 22,200 -1,140 Descending FlightAware
06:26AM 42.3580 -75.4890 72° East 494 568 22,000 -180 Descending FlightAware
06:27AM 42.3840 -75.3740 73° East 495 570 22,000  Level FlightAware
06:28AM 42.4130 -75.2560 72° East 495 570 22,000 -720 Level FlightAware
06:28AM 42.4390 -75.1450 72° East 487 560 21,100 -720 Descending FlightAware
06:29AM 42.4620 -75.0480 72° East 487 560 21,100  Level FlightAware
06:30AM 42.5000 -74.8900 72° East 487 560 21,100  Level FlightAware
06:31AM 42.5210 -74.8010 72° East 487 560 21,100  Level FlightAware
06:31AM 42.5490 -74.6850 72° East 487 560 21,100  Level FlightAware
06:32AM 42.5710 -74.5960 71° East 487 560 21,100 -5,340 Level FlightAware
06:33AM 42.5511 -74.3481 71° East 329 379 10,700 -5,220 Descending Boston Center
06:34AM 42.5883 -74.2450 64° Northeast 296 341 8,700 -2,160 Descending Boston Center
06:35AM 42.6189 -74.1414 68° East 298 343 6,400 -1,980 Descending Boston Center
06:36AM 42.6433 -74.0378 72° East 288 331 4,800 -1,380 Descending Boston Center
06:37AM 42.6300 -73.9497 102° East 255 293 3,700 -900 Descending Boston Center
06:38AM 42.6036 -73.8928 122° Southeast 233 268 3,000 -480 Descending Boston Center
06:39AM 42.5836 -73.8247 112° Southeast 211 243 2,800 -540 Descending Boston Center
06:40AM 42.6297 -73.8031 19° North 131 151 2,000 -780 Descending Boston Center
06:41AM 42.6839 -73.8069 357° North 153 176 1,300 -660 Descending Boston Center
06:42AM 42.7194 -73.8078 359° North 119 137 700 -600 Descending Boston Center